Time;durP1;ratioP1;P1;durP2;ratioP2;P2;SDS_P1;SDS_P2;PMS_P1;PMS_P2;Temp;Humidity;BMP_temperature;BMP_pressure;BME280_temperature;BME280_humidity;BME280_pressure;Samples;Min_cycle;Max_cycle;Signal;HPM_P1;HPM_P2
2019/04/06 00:01:06;;;;;;;53.4;33.1;;;;;;;6.09;82.78125;948.1827;;;;
2019/04/06 00:03:26;;;;;;;55.3;34.4;;;;;;;6.02;82.37012;948.1512;;;;
2019/04/06 00:05:51;;;;;;;57.4;36.5;;;;;;;6.2;81.83301;948.158;;;;
2019/04/06 00:08:16;;;;;;;57.7;36.7;;;;;;;6.14;82.3125;948.1389;;;;
2019/04/06 00:10:41;;;;;;;59.1;34.9;;;;;;;6.1;82.47461;948.1223;;;;
2019/04/06 00:13:06;;;;;;;59.5;34.5;;;;;;;6.13;82.40039;948.17;;;;
2019/04/06 00:15:33;;;;;;;57.1;35.7;;;;;;;6.17;82.02051;948.1191;;;;
2019/04/06 00:17:58;;;;;;;58.9;35.2;;;;;;;6.12;82.19434;948.124;;;;
2019/04/06 00:20:23;;;;;;;55.8;35.3;;;;;;;6.18;81.94238;948.0372;;;;
2019/04/06 00:22:48;;;;;;;61.8;36.8;;;;;;;6.14;82.28906;948.1008;;;;
2019/04/06 00:25:13;;;;;;;53.5;33.6;;;;;;;6.3;81.70313;948.0115;;;;
2019/04/06 00:27:38;;;;;;;49.7;31;;;;;;;6.38;81.2041;947.9995;;;;
2019/04/06 00:30:03;;;;;;;56;36.5;;;;;;;6.42;81.30273;947.9736;;;;
2019/04/06 00:32:32;;;;;;;56.9;34.5;;;;;;;6.4;81.15234;947.9246;;;;
2019/04/06 00:34:54;;;;;;;55.9;35.4;;;;;;;6.25;81.87598;947.9705;;;;
2019/04/06 00:37:20;;;;;;;52.7;33.3;;;;;;;6.27;82.25781;947.9171;;;;
2019/04/06 00:39:45;;;;;;;58;35.9;;;;;;;6.39;82.29199;947.858;;;;
2019/04/06 00:42:10;;;;;;;58.6;34.9;;;;;;;6.38;81.76465;947.8716;;;;
2019/04/06 00:44:37;;;;;;;60.2;37.1;;;;;;;6.41;80.78613;947.8514;;;;
2019/04/06 00:47:02;;;;;;;58.2;36.8;;;;;;;6.55;80.24316;947.8574;;;;
2019/04/06 00:49:29;;;;;;;57.4;35.7;;;;;;;6.52;80.48633;947.9035;;;;
2019/04/06 00:51:57;;;;;;;55.3;36.1;;;;;;;6.61;80.36816;947.8896;;;;
2019/04/06 00:54:22;;;;;;;63.1;38.1;;;;;;;6.54;79.98828;947.9391;;;;
2019/04/06 00:56:47;;;;;;;63;38.9;;;;;;;6.47;80.55859;947.8499;;;;
2019/04/06 00:59:12;;;;;;;59.4;36.9;;;;;;;6.5;80.54004;947.9186;;;;
2019/04/06 01:01:37;;;;;;;62;38.2;;;;;;;6.55;80.33301;947.9215;;;;
2019/04/06 01:04:02;;;;;;;55.9;36.7;;;;;;;6.69;79.25098;948.0242;;;;
2019/04/06 01:06:29;;;;;;;55.3;35.8;;;;;;;6.59;79.96289;948.0397;;;;
2019/04/06 01:08:54;;;;;;;56.6;36.6;;;;;;;6.73;78.9375;948.0583;;;;
2019/04/06 01:11:19;;;;;;;57.7;37.2;;;;;;;6.88;78.65625;947.9915;;;;
2019/04/06 01:13:45;;;;;;;55.3;34.9;;;;;;;6.79;78.92383;947.9888;;;;
2019/04/06 01:16:10;;;;;;;55.8;35.9;;;;;;;6.83;79.11523;948.0268;;;;
2019/04/06 01:18:37;;;;;;;58.2;37.7;;;;;;;6.8;78.49316;947.8853;;;;
2019/04/06 01:21:02;;;;;;;62.3;38.6;;;;;;;6.74;78.89355;948.0368;;;;
2019/04/06 01:23:29;;;;;;;59;37.7;;;;;;;6.67;79.17773;948.0012;;;;
2019/04/06 01:25:54;;;;;;;57.9;36.9;;;;;;;6.69;79.76563;948.0712;;;;
2019/04/06 01:28:21;;;;;;;55.5;37.3;;;;;;;6.96;78.75;948.0508;;;;
2019/04/06 01:30:46;;;;;;;60.5;37.8;;;;;;;6.81;79.13477;947.9861;;;;
2019/04/06 01:33:12;;;;;;;60.4;37.4;;;;;;;6.72;79.51855;948.0168;;;;
2019/04/06 01:35:37;;;;;;;61.3;38.2;;;;;;;6.56;80.32324;948.0137;;;;
2019/04/06 01:38:06;;;;;;;60.9;37.9;;;;;;;6.59;80.21387;948.0016;;;;
2019/04/06 01:40:31;;;;;;;61.8;38.2;;;;;;;6.64;80.11035;948.0005;;;;
2019/04/06 01:42:56;;;;;;;64.7;39.2;;;;;;;6.61;80;948.0255;;;;
2019/04/06 01:45:21;;;;;;;58.2;36.9;;;;;;;6.58;79.9043;947.9348;;;;
2019/04/06 01:47:47;;;;;;;57.7;37.5;;;;;;;6.52;80.52246;947.9877;;;;
2019/04/06 01:50:13;;;;;;;58.2;37.2;;;;;;;6.51;80.30371;947.9465;;;;
2019/04/06 01:52:39;;;;;;;58.4;37.6;;;;;;;6.51;80.48535;947.9005;;;;
2019/04/06 01:55:05;;;;;;;61.8;37.7;;;;;;;6.43;80.78027;947.8959;;;;
2019/04/06 01:57:30;;;;;;;57.4;37.1;;;;;;;6.36;80.82227;947.8406;;;;
2019/04/06 01:59:56;;;;;;;59.3;37;;;;;;;6.27;80.97656;947.8162;;;;
2019/04/06 02:02:25;;;;;;;59.2;37.2;;;;;;;6.25;81.39551;947.8307;;;;
2019/04/06 02:04:46;;;;;;;57.6;36.2;;;;;;;6.35;81.46191;947.731;;;;
2019/04/06 02:07:13;;;;;;;58.2;37;;;;;;;6.41;81.38281;947.7917;;;;
2019/04/06 02:09:38;;;;;;;58;36.9;;;;;;;6.41;81.06055;947.7625;;;;
2019/04/06 02:12:07;;;;;;;60.3;36.9;;;;;;;6.34;81.73242;947.7836;;;;
2019/04/06 02:14:32;;;;;;;60.6;36.4;;;;;;;6.22;81.55078;947.7363;;;;
2019/04/06 02:16:57;;;;;;;56.1;35.2;;;;;;;6.48;80.83398;947.7933;;;;
2019/04/06 02:19:22;;;;;;;56.6;36.1;;;;;;;6.35;81.2793;947.735;;;;
2019/04/06 02:21:48;;;;;;;55.6;34.4;;;;;;;6.54;80.52441;947.7023;;;;
2019/04/06 02:24:15;;;;;;;57.7;36.5;;;;;;;6.53;80.28223;947.7883;;;;
2019/04/06 02:26:39;;;;;;;53.6;35.3;;;;;;;6.51;80.37109;947.7692;;;;
2019/04/06 02:29:04;;;;;;;50.2;32.1;;;;;;;6.57;80.08691;947.8127;;;;
2019/04/06 02:34:04;;;;;;;58.1;36.3;;;;;;;6.55;80.58691;947.743;;;;
2019/04/06 02:36:37;;;;;;;57.3;36.2;;;;;;;6.49;81.09863;947.7924;;;;
2019/04/06 02:38:52;;;;;;;57.8;36.1;;;;;;;6.5;80.98828;947.7906;;;;
2019/04/06 02:43:36;;;;;;;58.9;36;;;;;;;6.47;81.50684;947.7863;;;;
2019/04/06 02:46:01;;;;;;;54.7;33.5;;;;;;;6.65;80.4209;947.7028;;;;
2019/04/06 02:48:26;;;;;;;51.4;34.9;;;;;;;6.81;79.39844;947.7192;;;;
2019/04/06 02:50:52;;;;;;;57.7;37.8;;;;;;;6.63;80.14258;947.7305;;;;
2019/04/06 02:53:17;;;;;;;59.5;37.9;;;;;;;6.48;80.42285;947.717;;;;
2019/04/06 02:55:43;;;;;;;56.2;36.2;;;;;;;6.55;80.37891;947.6586;;;;
2019/04/06 02:58:09;;;;;;;58.6;36.3;;;;;;;6.4;80.6709;947.6753;;;;
2019/04/06 03:00:34;;;;;;;60.7;36.1;;;;;;;6.39;81.30859;947.5999;;;;
2019/04/06 03:03:00;;;;;;;54.9;34.9;;;;;;;6.45;80.64648;947.6567;;;;
2019/04/06 03:05:27;;;;;;;56;35.6;;;;;;;6.54;79.9873;947.7062;;;;
2019/04/06 03:07:52;;;;;;;59;36.1;;;;;;;6.59;79.96289;947.718;;;;
2019/04/06 03:10:19;;;;;;;56.5;37;;;;;;;6.35;81.05078;947.731;;;;
2019/04/06 03:12:44;;;;;;;54.2;34.6;;;;;;;6.36;82.84473;947.65;;;;
2019/04/06 03:15:11;;;;;;;47.7;30.6;;;;;;;6.43;82.87207;947.6887;;;;
2019/04/06 03:17:36;;;;;;;57.3;34.2;;;;;;;6.5;82.24414;947.6556;;;;
2019/04/06 03:20:04;;;;;;;63.2;37.9;;;;;;;6.21;83.86816;947.6998;;;;
2019/04/06 03:22:29;;;;;;;54.6;34.7;;;;;;;6.35;83.38184;947.646;;;;
2019/04/06 03:24:54;;;;;;;56.5;34.6;;;;;;;6.33;83.18262;947.6699;;;;
2019/04/06 03:27:20;;;;;;;57.9;35.9;;;;;;;6.21;83.45508;947.5943;;;;
2019/04/06 03:30:12;;;;;;;55.5;34.1;;;;;;;6.3;82.58301;947.6392;;;;
2019/04/06 03:32:37;;;;;;;54.9;33.3;;;;;;;6.29;82.84375;947.6616;;;;
2019/04/06 03:35:02;;;;;;;61.1;37.7;;;;;;;6.09;83.58105;947.5723;;;;
2019/04/06 03:37:27;;;;;;;59.2;34.8;;;;;;;6;84.04492;947.5606;;;;
2019/04/06 03:39:52;;;;;;;53.8;33;;;;;;;6.14;83.69434;947.5928;;;;
2019/04/06 03:42:17;;;;;;;57.9;34.9;;;;;;;6.14;83.59082;947.5928;;;;
2019/04/06 03:44:42;;;;;;;54.3;34.3;;;;;;;6.21;83.20508;947.5728;;;;
2019/04/06 03:47:08;;;;;;;57.3;35;;;;;;;6.23;83.17285;947.6005;;;;
2019/04/06 03:49:33;;;;;;;62.5;37.7;;;;;;;6.03;84.23438;947.6209;;;;
2019/04/06 03:51:58;;;;;;;55.6;34.8;;;;;;;6.09;83.98047;947.6406;;;;
2019/04/06 03:54:23;;;;;;;49.4;32.1;;;;;;;6.19;83.47656;947.6291;;;;
2019/04/06 03:56:50;;;;;;;53.3;34.1;;;;;;;6.18;83.46094;947.6689;;;;
2019/04/06 03:59:15;;;;;;;43.6;28.7;;;;;;;6.31;82.9502;947.6677;;;;
2019/04/06 04:02:29;;;;;;;47.7;32.3;;;;;;;6.32;82.47266;947.6326;;;;
2019/04/06 04:04:54;;;;;;;50.3;31.9;;;;;;;6.35;82.33008;947.6167;;;;
2019/04/06 04:07:20;;;;;;;53.1;34.2;;;;;;;6.28;82.57813;947.6033;;;;
2019/04/06 04:09:45;;;;;;;61.6;37.8;;;;;;;6.12;83.56543;947.5906;;;;
2019/04/06 04:12:10;;;;;;;58.1;35.1;;;;;;;6.19;82.87109;947.6172;;;;
2019/04/06 04:14:35;;;;;;;59.2;37.1;;;;;;;6.23;83.58594;947.6591;;;;
2019/04/06 04:17:00;;;;;;;58.5;36.6;;;;;;;6.32;84.07227;947.7176;;;;
2019/04/06 04:19:26;;;;;;;60.6;37.4;;;;;;;6.09;84.87109;947.7509;;;;
2019/04/06 04:21:51;;;;;;;66.4;38.2;;;;;;;5.91;84.7334;947.8494;;;;
2019/04/06 04:24:16;;;;;;;63.7;37.9;;;;;;;5.96;84.7666;947.8156;;;;
2019/04/06 04:26:41;;;;;;;65.9;38.7;;;;;;;5.69;86.4707;947.7967;;;;
2019/04/06 04:29:06;;;;;;;66.7;39.6;;;;;;;5.56;86.71875;947.7802;;;;
2019/04/06 04:31:32;;;;;;;60.3;37.2;;;;;;;5.75;86.29883;947.7569;;;;
2019/04/06 04:33:59;;;;;;;65.2;39;;;;;;;5.83;85.8584;947.748;;;;
2019/04/06 04:36:24;;;;;;;62.7;37;;;;;;;5.91;85.87598;947.7645;;;;
2019/04/06 04:38:49;;;;;;;60;35.7;;;;;;;5.88;85.60645;947.7471;;;;
2019/04/06 04:41:14;;;;;;;63.4;38.3;;;;;;;5.83;85.99512;947.7695;;;;
2019/04/06 04:43:41;;;;;;;63.8;37.5;;;;;;;5.86;86.34473;947.7742;;;;
2019/04/06 04:46:06;;;;;;;58.9;35.6;;;;;;;6.01;85.38184;947.7972;;;;
2019/04/06 04:48:33;;;;;;;61;36.6;;;;;;;6.02;84.56152;947.7703;;;;
2019/04/06 04:50:58;;;;;;;64.8;40;;;;;;;5.88;86.29199;947.8272;;;;
2019/04/06 04:53:25;;;;;;;56.1;36.2;;;;;;;6.02;85.45117;947.847;;;;
2019/04/06 04:55:50;;;;;;;66.5;39.2;;;;;;;5.94;86.05273;947.7999;;;;
2019/04/06 04:58:16;;;;;;;62.9;37;;;;;;;6.03;85.26953;947.9012;;;;
2019/04/06 05:00:41;;;;;;;55;33.8;;;;;;;6.1;85.28418;947.9231;;;;
2019/04/06 05:03:08;;;;;;;62.9;37.4;;;;;;;5.93;85.77734;947.8734;;;;
2019/04/06 05:05:33;;;;;;;59.6;36.3;;;;;;;6.03;85.30371;947.9139;;;;
2019/04/06 05:08:01;;;;;;;60.7;36.5;;;;;;;6.04;85.25098;947.9542;;;;
2019/04/06 05:10:26;;;;;;;57.4;36.6;;;;;;;6.03;85.35156;947.9345;;;;
2019/04/06 05:12:51;;;;;;;62.7;37.3;;;;;;;6.11;84.7373;947.9348;;;;
2019/04/06 05:15:16;;;;;;;57.5;36.5;;;;;;;6.3;83.54297;948.0242;;;;
2019/04/06 05:17:42;;;;;;;57.1;35.9;;;;;;;6.55;82.62012;948.0567;;;;
2019/04/06 05:20:08;;;;;;;52.3;33;;;;;;;6.6;81.9209;948.0176;;;;
2019/04/06 05:22:34;;;;;;;64.7;38.1;;;;;;;6.44;82.87305;948.0808;;;;
2019/04/06 05:24:59;;;;;;;59.3;36.7;;;;;;;6.4;83.01465;948.077;;;;
2019/04/06 05:27:26;;;;;;;57.2;35.8;;;;;;;6.55;82.39258;948.0861;;;;
2019/04/06 05:29:51;;;;;;;53.8;34.4;;;;;;;6.58;81.67773;948.0405;;;;
2019/04/06 05:32:17;;;;;;;53.3;34.4;;;;;;;6.74;81.64941;948.0368;;;;
2019/04/06 05:34:42;;;;;;;59.7;36;;;;;;;6.65;81.71387;948.088;;;;
2019/04/06 05:37:08;;;;;;;59.1;37.3;;;;;;;6.78;81.17578;948.0875;;;;
2019/04/06 05:39:33;;;;;;;58.4;36.2;;;;;;;6.84;80.84473;948.068;;;;
2019/04/06 05:42:01;;;;;;;60.1;37.5;;;;;;;6.8;81.41016;948.0761;;;;
2019/04/06 05:44:26;;;;;;;57.7;38;;;;;;;6.81;82.05371;948.0703;;;;
2019/04/06 05:46:52;;;;;;;66.6;39.4;;;;;;;6.87;81.69824;948.0941;;;;
2019/04/06 05:49:17;;;;;;;59.8;38.1;;;;;;;6.95;81.97656;948.111;;;;
2019/04/06 05:51:42;;;;;;;62;40.5;;;;;;;6.93;81.90234;948.0325;;;;
2019/04/06 05:54:07;;;;;;;58.6;38.6;;;;;;;7;80.625;948.1053;;;;
2019/04/06 05:56:32;;;;;;;59.1;37.9;;;;;;;7.17;80.88379;948.0953;;;;
2019/04/06 05:58:57;;;;;;;58.9;37.8;;;;;;;7.02;81.25586;948.0948;;;;
2019/04/06 06:01:22;;;;;;;59.7;38.3;;;;;;;7.07;81.07129;948.1484;;;;
2019/04/06 06:03:47;;;;;;;62.7;40.2;;;;;;;6.85;81.67188;948.1386;;;;
2019/04/06 06:06:14;;;;;;;62.8;39.5;;;;;;;6.87;81.7207;948.1705;;;;
2019/04/06 06:08:39;;;;;;;63.2;40.4;;;;;;;6.94;81.44824;948.2342;;;;
2019/04/06 06:11:06;;;;;;;61.8;40.6;;;;;;;7.06;81.16113;948.1797;;;;
2019/04/06 06:13:31;;;;;;;62;38.5;;;;;;;7;80.75098;948.2746;;;;
2019/04/06 06:15:56;;;;;;;58.3;39;;;;;;;7.12;81.48242;948.2404;;;;
2019/04/06 06:18:23;;;;;;;62.5;39.5;;;;;;;6.92;81.74121;948.2289;;;;
2019/04/06 06:20:48;;;;;;;66.2;40.9;;;;;;;7.1;81.03125;948.1882;;;;
2019/04/06 06:23:14;;;;;;;63.6;40.5;;;;;;;7.01;80.99121;948.168;;;;
2019/04/06 06:25:39;;;;;;;63.6;41;;;;;;;7.07;81.53125;948.1564;;;;
2019/04/06 06:28:05;;;;;;;64;40.6;;;;;;;7.15;81.13281;948.1353;;;;
2019/04/06 06:30:30;;;;;;;64.3;40.4;;;;;;;7.27;80.66211;948.1482;;;;
2019/04/06 06:32:57;;;;;;;56.4;38.6;;;;;;;7.44;79.80078;948.1591;;;;
2019/04/06 06:35:36;;;;;;;56.7;37.6;;;;;;;7.45;80.19336;948.1191;;;;
2019/04/06 06:38:02;;;;;;;61.7;40.2;;;;;;;7.38;79.95117;948.1481;;;;
2019/04/06 06:40:27;;;;;;;61.3;40.7;;;;;;;7.42;80.12891;948.1566;;;;
2019/04/06 06:42:52;;;;;;;62.3;39.8;;;;;;;7.39;80.19336;948.1638;;;;
2019/04/06 06:45:17;;;;;;;63.9;40.8;;;;;;;7.29;81.22852;948.1454;;;;
2019/04/06 06:47:42;;;;;;;60.2;39.6;;;;;;;7.42;80.77246;948.135;;;;
2019/04/06 06:50:07;;;;;;;59.2;40;;;;;;;7.56;80.15625;948.2087;;;;
2019/04/06 06:52:32;;;;;;;62.7;40.8;;;;;;;7.57;80.7998;948.2629;;;;
2019/04/06 06:54:59;;;;;;;64;41.3;;;;;;;7.41;81.47949;948.183;;;;
2019/04/06 06:57:24;;;;;;;58.3;40.1;;;;;;;7.52;80.65137;948.2472;;;;
2019/04/06 06:59:50;;;;;;;64.5;42.7;;;;;;;7.52;80.35352;948.2472;;;;
2019/04/06 07:02:15;;;;;;;61.7;42.2;;;;;;;7.49;80.81836;948.2548;;;;
2019/04/06 07:04:41;;;;;;;61.5;40.8;;;;;;;7.77;79.88477;948.27;;;;
2019/04/06 07:07:06;;;;;;;57.9;39.5;;;;;;;7.81;79.4668;948.2745;;;;
2019/04/06 07:09:38;;;;;;;61;40.6;;;;;;;7.77;79.8291;948.2357;;;;
2019/04/06 07:11:58;;;;;;;58.5;39.2;;;;;;;7.77;79.55371;948.2739;;;;
2019/04/06 07:14:24;;;;;;;58.5;40.7;;;;;;;7.72;79.94531;948.2291;;;;
2019/04/06 07:16:50;;;;;;;60.1;40.7;;;;;;;7.9;79.71484;948.1702;;;;
2019/04/06 07:19:15;;;;;;;64.3;41.3;;;;;;;7.97;79.52148;948.1925;;;;
2019/04/06 07:21:40;;;;;;;60.6;41.2;;;;;;;7.84;79.58887;948.182;;;;
2019/04/06 07:24:07;;;;;;;58.8;40.4;;;;;;;7.89;80;948.1886;;;;
2019/04/06 07:26:32;;;;;;;56.8;39.3;;;;;;;7.95;80.0918;948.1777;;;;
2019/04/06 07:28:59;;;;;;;59.6;40.7;;;;;;;7.87;80.20117;948.1998;;;;
2019/04/06 07:31:24;;;;;;;59.9;41.3;;;;;;;7.79;80.31445;948.1744;;;;
2019/04/06 07:33:50;;;;;;;57.4;40.3;;;;;;;7.99;79.53613;948.2371;;;;
2019/04/06 07:36:16;;;;;;;57.8;39.3;;;;;;;8.2;78.7959;948.1911;;;;
2019/04/06 07:38:42;;;;;;;55.1;38.6;;;;;;;8.22;78.53516;948.1717;;;;
2019/04/06 07:41:09;;;;;;;59.5;40.3;;;;;;;8.38;78.43848;948.1497;;;;
2019/04/06 07:43:33;;;;;;;56.7;39.1;;;;;;;8.39;78.40527;948.1155;;;;
2019/04/06 07:46:01;;;;;;;57.5;40.2;;;;;;;8.59;77.83203;948.0963;;;;
2019/04/06 07:48:26;;;;;;;57.3;40.3;;;;;;;8.84;77.47656;948.0709;;;;
2019/04/06 07:50:51;;;;;;;55.2;39.6;;;;;;;8.84;76.84277;948.114;;;;
2019/04/06 07:53:16;;;;;;;58.9;40.8;;;;;;;9.14;77.23047;948.0142;;;;
2019/04/06 07:55:42;;;;;;;53;39.1;;;;;;;9.28;76.8291;948.0322;;;;
2019/04/06 07:58:07;;;;;;;52.2;39.3;;;;;;;9.6;74.76953;948.0399;;;;
2019/04/06 08:00:33;;;;;;;54.6;40.4;;;;;;;9.11;76.20117;948.005;;;;
2019/04/06 08:02:57;;;;;;;56.3;41.8;;;;;;;9.23;76.21289;947.914;;;;
2019/04/06 08:05:22;;;;;;;54.6;41.4;;;;;;;9.54;75.60938;947.9078;;;;
2019/04/06 08:07:47;;;;;;;54.3;40.3;;;;;;;9.76;75.16406;947.9194;;;;
2019/04/06 08:10:12;;;;;;;54.9;41;;;;;;;9.92;73.46387;948.0023;;;;
2019/04/06 08:12:38;;;;;;;51.4;38.6;;;;;;;9.96;73.79297;948.0269;;;;
2019/04/06 08:15:03;;;;;;;54.8;39.3;;;;;;;10.02;73.80371;948.0628;;;;
2019/04/06 08:17:28;;;;;;;50.2;38.2;;;;;;;10.02;74.42773;948.0108;;;;
2019/04/06 08:19:53;;;;;;;49.7;39.4;;;;;;;10.46;72.33203;947.9959;;;;
2019/04/06 08:22:18;;;;;;;52;39.9;;;;;;;10.22;72.98535;948.0158;;;;
2019/04/06 08:24:43;;;;;;;53.2;40;;;;;;;10.15;73.2373;947.9958;;;;
2019/04/06 08:27:09;;;;;;;54.8;40.2;;;;;;;10.17;73.33398;948.0352;;;;
2019/04/06 08:29:33;;;;;;;52.8;39.1;;;;;;;10.59;71.80078;947.9631;;;;
2019/04/06 08:31:58;;;;;;;53.5;39.9;;;;;;;10.14;72.8916;948.0686;;;;
2019/04/06 08:34:23;;;;;;;50.9;39;;;;;;;10.56;72.31445;948.0435;;;;
2019/04/06 08:36:48;;;;;;;50.4;39.3;;;;;;;10.64;70.82715;947.8973;;;;
2019/04/06 08:39:14;;;;;;;51.1;40.4;;;;;;;10.48;71.64355;947.9978;;;;
2019/04/06 08:41:39;;;;;;;49.9;39.6;;;;;;;10.78;71.08301;948.007;;;;
2019/04/06 08:44:04;;;;;;;52;39.3;;;;;;;11.42;69.02539;947.9733;;;;
2019/04/06 08:46:29;;;;;;;49.1;39.2;;;;;;;11.58;68.13672;947.9998;;;;
2019/04/06 08:48:54;;;;;;;46.8;38.4;;;;;;;11.51;68.10254;947.9487;;;;
2019/04/06 08:51:19;;;;;;;50.1;39.7;;;;;;;11.3;69.17871;947.9593;;;;
2019/04/06 08:53:44;;;;;;;46;36.8;;;;;;;11.08;70.69238;947.9224;;;;
2019/04/06 08:56:09;;;;;;;47.2;38.3;;;;;;;11.31;68.69629;947.902;;;;
2019/04/06 08:58:35;;;;;;;45.2;37;;;;;;;11.6;67.67773;947.9163;;;;
2019/04/06 09:01:00;;;;;;;45.1;37.6;;;;;;;11.37;68.87793;947.8469;;;;
2019/04/06 09:03:25;;;;;;;45.1;37.3;;;;;;;11.57;68.92383;947.8639;;;;
2019/04/06 09:05:50;;;;;;;40.5;34.3;;;;;;;11.73;66.86523;947.7881;;;;
2019/04/06 09:08:15;;;;;;;43;35.7;;;;;;;11.36;67.69922;947.8094;;;;
2019/04/06 09:10:40;;;;;;;42.8;34.6;;;;;;;11.54;67.54199;947.7781;;;;
2019/04/06 09:13:05;;;;;;;42.2;35.2;;;;;;;11.68;67.5625;947.7781;;;;
2019/04/06 09:15:31;;;;;;;42.8;34.5;;;;;;;11.93;65.83008;947.7497;;;;
2019/04/06 09:17:56;;;;;;;39.5;33.7;;;;;;;12.21;64.32129;947.7511;;;;
2019/04/06 09:20:23;;;;;;;41.3;33.8;;;;;;;11.89;66.29785;947.7557;;;;
2019/04/06 09:22:49;;;;;;;41.2;33.9;;;;;;;11.74;66.20703;947.6925;;;;
2019/04/06 09:25:14;;;;;;;40;34.2;;;;;;;12.21;64.59863;947.688;;;;
2019/04/06 09:27:39;;;;;;;41.1;33.7;;;;;;;12.4;63.9082;947.676;;;;
2019/04/06 09:30:04;;;;;;;41.7;35.2;;;;;;;11.86;65.17285;947.6945;;;;
2019/04/06 09:32:30;;;;;;;40.2;33.2;;;;;;;11.86;65.32324;947.6345;;;;
2019/04/06 09:34:55;;;;;;;39.3;33.2;;;;;;;12.29;64.23926;947.6385;;;;
2019/04/06 09:37:20;;;;;;;40.4;33;;;;;;;12.52;63.32324;947.5736;;;;
2019/04/06 09:39:52;;;;;;;40.4;33.1;;;;;;;13.01;62.9541;947.5209;;;;
2019/04/06 09:42:19;;;;;;;40.2;33.1;;;;;;;13.21;62.30957;947.5248;;;;
2019/04/06 09:47:18;;;;;;;44.2;34.4;;;;;;;12.57;63.26172;947.4816;;;;
2019/04/06 09:52:09;;;;;;;39.9;34.1;;;;;;;12.96;62.09961;947.3831;;;;
2019/04/06 09:54:30;;;;;;;42.2;34.7;;;;;;;12.85;62.22363;947.4065;;;;
2019/04/06 09:56:58;;;;;;;42.5;34.8;;;;;;;12.81;62.32227;947.4373;;;;
2019/04/06 09:59:25;;;;;;;38.3;33.2;;;;;;;12.93;61.2832;947.3823;;;;
2019/04/06 10:04:18;;;;;;;38.8;31.8;;;;;;;13.52;59.62402;947.3282;;;;
2019/04/06 10:09:06;;;;;;;40.4;32.1;;;;;;;14.69;56.73242;947.2938;;;;
2019/04/06 10:16:21;;;;;;;39.1;32.6;;;;;;;14.9;55.25488;947.1356;;;;
2019/04/06 10:18:46;;;;;;;39.4;32.9;;;;;;;14.51;56.74414;947.088;;;;
2019/04/06 10:21:09;;;;;;;37.7;32.5;;;;;;;14.53;55.52344;947.1493;;;;
2019/04/06 10:23:34;;;;;;;39.7;32.5;;;;;;;15.04;53.4541;947.1404;;;;
2019/04/06 10:25:57;;;;;;;41.9;33.5;;;;;;;14.75;55.0625;947.2001;;;;
2019/04/06 10:30:56;;;;;;;45.4;36;;;;;;;13.3;58.75879;947.058;;;;
2019/04/06 10:33:14;;;;;;;39;31.3;;;;;;;13.48;58.68945;947.0032;;;;
2019/04/06 10:35:40;;;;;;;40.3;32;;;;;;;13.6;59.05371;947.0518;;;;
2019/04/06 10:38:12;;;;;;;39.6;31.7;;;;;;;14.48;56.22754;946.9756;;;;
2019/04/06 10:42:58;;;;;;;36.9;30.2;;;;;;;14.37;55.1416;946.9182;;;;
2019/04/06 10:45:20;;;;;;;36.8;30.8;;;;;;;14.3;55.30859;946.9151;;;;
2019/04/06 10:52:43;;;;;;;34;28.5;;;;;;;14.27;55.78125;946.7095;;;;
2019/04/06 10:57:28;;;;;;;30.7;25.7;;;;;;;13.94;56.51855;946.6962;;;;
2019/04/06 10:59:52;;;;;;;32.4;25.6;;;;;;;14.45;54.39551;946.637;;;;
2019/04/06 11:04:46;;;;;;;31.2;24.2;;;;;;;15.39;52.40039;946.6217;;;;
2019/04/06 11:12:06;;;;;;;27.8;23.6;;;;;;;16.52;49.73926;946.5199;;;;
2019/04/06 11:14:26;;;;;;;26.8;23.9;;;;;;;16.16;50.06152;946.4448;;;;
2019/04/06 11:16:49;;;;;;;31.7;24.7;;;;;;;16;50.19434;946.4596;;;;
2019/04/06 11:21:37;;;;;;;27.4;22.7;;;;;;;17.61;47.78809;946.3694;;;;
2019/04/06 11:26:29;;;;;;;26.8;22.6;;;;;;;17.94;45.91016;946.3974;;;;
2019/04/06 11:29:01;;;;;;;25.5;22.7;;;;;;;17.78;44.87402;946.2271;;;;
2019/04/06 11:31:23;;;;;;;26.2;21.8;;;;;;;17.63;46.90039;946.2974;;;;
2019/04/06 11:33:49;;;;;;;22.6;20.2;;;;;;;18.52;43.92676;946.2019;;;;
2019/04/06 11:43:44;;;;;;;24.1;21.5;;;;;;;16.41;48.37109;946.2944;;;;
2019/04/06 11:48:51;;;;;;;23.9;21.4;;;;;;;17.48;44.92578;946.2991;;;;
2019/04/06 11:55:59;;;;;;;22.9;20.4;;;;;;;17.31;45.15332;946.2745;;;;
2019/04/06 12:00:52;;;;;;;25.6;22.6;;;;;;;18.03;44.34766;946.2394;;;;
2019/04/06 12:03:15;;;;;;;23.6;20.6;;;;;;;18.06;42.97656;946.2654;;;;
2019/04/06 12:08:08;;;;;;;24.6;21.9;;;;;;;17.33;45.94141;946.2363;;;;
2019/04/06 12:10:33;;;;;;;24.9;21.9;;;;;;;16.88;47.06445;946.2667;;;;
2019/04/06 12:15:29;;;;;;;24.5;20.2;;;;;;;17.47;44.44434;946.2834;;;;
2019/04/06 12:22:45;;;;;;;21;18.7;;;;;;;18.08;42.18066;946.1894;;;;
2019/04/06 12:34:57;;;;;;;21.6;19.3;;;;;;;17.47;44.2793;946.198;;;;
2019/04/06 12:37:16;;;;;;;22.3;20;;;;;;;17.29;44.33203;946.308;;;;
2019/04/06 12:39:54;;;;;;;22.6;18.8;;;;;;;18;42.94727;946.2492;;;;
2019/04/06 12:49:31;;;;;;;21.9;19.3;;;;;;;18.87;42.0918;946.2054;;;;
2019/04/06 12:51:47;;;;;;;20.8;18.6;;;;;;;19.44;40.26172;946.2617;;;;
2019/04/06 12:54:21;;;;;;;21.4;19.2;;;;;;;18.54;42.02539;946.2189;;;;
2019/04/06 12:56:44;;;;;;;20.8;18.6;;;;;;;19.02;42.3877;946.2689;;;;
2019/04/06 12:59:04;;;;;;;21.5;19.2;;;;;;;19.4;42.68359;946.2329;;;;
2019/04/06 13:01:32;;;;;;;21.1;18.9;;;;;;;19.25;40.19727;946.1707;;;;
2019/04/06 13:04:03;;;;;;;21.7;18.7;;;;;;;18.39;41.69336;946.2433;;;;
2019/04/06 13:08:48;;;;;;;20.9;18.7;;;;;;;19.79;39.18652;946.1262;;;;
2019/04/06 13:13:43;;;;;;;21.3;19;;;;;;;19.74;39.33496;946.1779;;;;
2019/04/06 13:18:25;;;;;;;19.2;17.2;;;;;;;20.13;38.68555;946.1732;;;;
2019/04/06 13:23:24;;;;;;;17.9;16;;;;;;;21.1;36.18164;946.1155;;;;
2019/04/06 13:25:50;;;;;;;18;16.3;;;;;;;20.55;37.27051;946.0514;;;;
2019/04/06 13:28:19;;;;;;;19.2;17.2;;;;;;;20.42;37.27051;946.052;;;;
2019/04/06 13:33:02;;;;;;;18.7;16.9;;;;;;;20.66;37.18457;946.0294;;;;
2019/04/06 13:35:27;;;;;;;19.6;17.7;;;;;;;19.74;38.99316;945.9702;;;;
2019/04/06 13:50:04;;;;;;;17.5;15.9;;;;;;;19.72;40.53418;945.9041;;;;
2019/04/06 13:52:27;;;;;;;17.3;15.6;;;;;;;19.81;40.04785;945.9149;;;;
2019/04/06 13:57:16;;;;;;;17.3;15.4;;;;;;;19.15;41.02441;945.9224;;;;
2019/04/06 14:04:30;;;;;;;18.3;15.9;;;;;;;19.17;42.12012;945.8942;;;;
2019/04/06 14:07:03;;;;;;;17.4;15.7;;;;;;;19.06;41.83887;945.8854;;;;
2019/04/06 14:14:14;;;;;;;16.2;14.5;;;;;;;18.56;43.44922;945.8189;;;;
2019/04/06 14:19:07;;;;;;;15.8;14.2;;;;;;;19.68;40.43652;945.9285;;;;
2019/04/06 14:23:57;;;;;;;16;14.5;;;;;;;20.24;39.27344;945.8386;;;;
2019/04/06 14:26:20;;;;;;;15.1;13.7;;;;;;;19.63;40.32617;945.8361;;;;
2019/04/06 14:28:51;;;;;;;15.4;13.8;;;;;;;20.98;37.80273;945.7889;;;;
2019/04/06 14:31:24;;;;;;;15.4;13.8;;;;;;;20.32;38.74902;945.7268;;;;
2019/04/06 14:41:52;;;;;;;15;13.5;;;;;;;20.09;39.54395;945.7899;;;;
2019/04/06 14:43:45;;;;;;;15.5;13.9;;;;;;;19.72;40.37012;945.856;;;;
2019/04/06 14:50:31;;;;;;;14.5;13;;;;;;;19.8;41.28516;945.7994;;;;
2019/04/06 14:52:58;;;;;;;14.1;12.8;;;;;;;19.94;39.29297;945.7947;;;;
2019/04/06 14:55:23;;;;;;;14.9;13.3;;;;;;;19.29;41.17871;945.8091;;;;
2019/04/06 14:57:48;;;;;;;15.3;13.7;;;;;;;19.15;42.00195;945.7278;;;;
2019/04/06 15:07:46;;;;;;;14.7;13.4;;;;;;;19.67;40.60059;945.7572;;;;
2019/04/06 15:10:10;;;;;;;15.3;12.1;;;;;;;19.4;41.74219;945.7996;;;;
2019/04/06 15:12:37;;;;;;;13.7;12.2;;;;;;;18.91;42.60156;945.7586;;;;
2019/04/06 15:17:31;;;;;;;14.4;12.9;;;;;;;18.72;42.04199;945.858;;;;
2019/04/06 15:22:17;;;;;;;13.2;11.8;;;;;;;18.99;42.31348;945.7292;;;;
2019/04/06 15:34:21;;;;;;;13.8;12.3;;;;;;;19.29;40.11914;945.6976;;;;
2019/04/06 15:39:18;;;;;;;13.2;11.8;;;;;;;19.32;40.60449;945.6149;;;;
2019/04/06 15:41:34;;;;;;;12.5;11.2;;;;;;;20.61;38.33789;945.5652;;;;
2019/04/06 15:49:30;;;;;;;12.5;11.3;;;;;;;19.01;41.52832;945.535;;;;
2019/04/06 15:56:32;;;;;;;12.9;11.6;;;;;;;18.35;41.74902;945.6367;;;;
2019/04/06 16:03:51;;;;;;;12.1;10.8;;;;;;;17.87;43.72266;945.475;;;;
2019/04/06 16:11:06;;;;;;;13.5;11.1;;;;;;;16.87;44.62891;945.4889;;;;
2019/04/06 16:15:52;;;;;;;12.2;11;;;;;;;16.3;47.11914;945.5154;;;;
2019/04/06 16:18:18;;;;;;;12.1;10.8;;;;;;;16.29;46.75586;945.5344;;;;
2019/04/06 16:25:41;;;;;;;11.7;10.5;;;;;;;16.08;46.99121;945.5567;;;;
2019/04/06 16:32:49;;;;;;;11.5;10.4;;;;;;;15.72;48.69141;945.6543;;;;
2019/04/06 16:37:41;;;;;;;13.7;10.7;;;;;;;16.15;47.66406;945.5552;;;;
2019/04/06 16:40:06;;;;;;;12.3;10.7;;;;;;;16.05;48.2373;945.5792;;;;
2019/04/06 16:42:34;;;;;;;14.1;11.2;;;;;;;16.17;47.78418;945.526;;;;
2019/04/06 16:44:54;;;;;;;13.4;11.4;;;;;;;16.23;48.72461;945.6379;;;;
2019/04/06 16:47:20;;;;;;;11.9;10.6;;;;;;;16.48;47.58398;945.5999;;;;
2019/04/06 16:49:45;;;;;;;12.3;11;;;;;;;16.05;48.74023;945.5483;;;;
2019/04/06 16:54:56;;;;;;;11.3;10;;;;;;;16.24;48.12988;945.6238;;;;
2019/04/06 16:59:45;;;;;;;11.7;10.5;;;;;;;16.74;46.27832;945.6806;;;;
2019/04/06 17:04:34;;;;;;;11.1;10;;;;;;;16.42;47.26074;945.6915;;;;
2019/04/06 17:09:24;;;;;;;12.2;10.7;;;;;;;16.14;47.51172;945.5951;;;;
2019/04/06 17:14:16;;;;;;;12.6;10.5;;;;;;;15.92;47.72168;945.6065;;;;
2019/04/06 17:19:12;;;;;;;12.1;10.3;;;;;;;15.61;48.7041;945.635;;;;
2019/04/06 17:21:28;;;;;;;12.1;9.9;;;;;;;15.42;49.60352;945.6348;;;;
2019/04/06 17:26:18;;;;;;;10.8;9.7;;;;;;;15.2;49.92871;945.6573;;;;
2019/04/06 17:28:54;;;;;;;10.9;9.7;;;;;;;14.77;51.12598;945.6861;;;;
2019/04/06 17:31:11;;;;;;;11.1;9.9;;;;;;;14.79;51.11719;945.6572;;;;
2019/04/06 17:33:35;;;;;;;10.7;9.6;;;;;;;14.64;51.70605;945.6522;;;;
2019/04/06 17:36:03;;;;;;;10.6;9.5;;;;;;;14.59;51.81543;945.7205;;;;